sensor_id;sensor_type;location;lat;lon;timestamp;P1;durP1;ratioP1;P2;durP2;ratioP2
22929;SDS011;11630;42.660;23.292;2023-01-28T00:01:27;10.07;;;8.40;;
22929;SDS011;11630;42.660;23.292;2023-01-28T00:03:59;7.67;;;6.87;;
22929;SDS011;11630;42.660;23.292;2023-01-28T00:06:30;9.83;;;7.50;;
22929;SDS011;11630;42.660;23.292;2023-01-28T00:09:01;7.67;;;6.27;;
22929;SDS011;11630;42.660;23.292;2023-01-28T00:11:32;9.37;;;7.23;;
22929;SDS011;11630;42.660;23.292;2023-01-28T00:14:03;7.67;;;6.73;;
22929;SDS011;11630;42.660;23.292;2023-01-28T00:16:33;7.70;;;6.83;;
22929;SDS011;11630;42.660;23.292;2023-01-28T00:19:04;9.27;;;7.37;;
22929;SDS011;11630;42.660;23.292;2023-01-28T00:21:35;8.07;;;7.03;;
22929;SDS011;11630;42.660;23.292;2023-01-28T00:24:06;8.13;;;7.07;;
22929;SDS011;11630;42.660;23.292;2023-01-28T00:26:37;7.13;;;6.43;;
22929;SDS011;11630;42.660;23.292;2023-01-28T00:29:08;8.20;;;6.97;;
22929;SDS011;11630;42.660;23.292;2023-01-28T00:31:39;7.10;;;6.33;;
22929;SDS011;11630;42.660;23.292;2023-01-28T00:34:10;9.30;;;7.30;;
22929;SDS011;11630;42.660;23.292;2023-01-28T00:36:41;7.77;;;6.70;;
22929;SDS011;11630;42.660;23.292;2023-01-28T00:39:14;7.10;;;5.73;;
22929;SDS011;11630;42.660;23.292;2023-01-28T00:41:45;8.03;;;7.23;;
22929;SDS011;11630;42.660;23.292;2023-01-28T00:44:16;8.67;;;6.80;;
22929;SDS011;11630;42.660;23.292;2023-01-28T00:46:47;9.33;;;6.47;;
22929;SDS011;11630;42.660;23.292;2023-01-28T00:49:18;8.33;;;7.20;;
22929;SDS011;11630;42.660;23.292;2023-01-28T00:51:49;8.00;;;7.17;;
22929;SDS011;11630;42.660;23.292;2023-01-28T00:54:19;7.50;;;6.70;;
22929;SDS011;11630;42.660;23.292;2023-01-28T00:56:50;7.40;;;6.67;;
22929;SDS011;11630;42.660;23.292;2023-01-28T00:59:20;9.57;;;8.30;;
22929;SDS011;11630;42.660;23.292;2023-01-28T01:01:51;8.13;;;7.33;;
22929;SDS011;11630;42.660;23.292;2023-01-28T01:04:22;8.67;;;7.60;;
22929;SDS011;11630;42.660;23.292;2023-01-28T01:06:54;8.97;;;7.10;;
22929;SDS011;11630;42.660;23.292;2023-01-28T01:09:25;7.40;;;6.60;;
22929;SDS011;11630;42.660;23.292;2023-01-28T01:11:56;8.77;;;6.97;;
22929;SDS011;11630;42.660;23.292;2023-01-28T01:14:27;7.07;;;6.37;;
22929;SDS011;11630;42.660;23.292;2023-01-28T01:16:58;9.33;;;7.23;;
22929;SDS011;11630;42.660;23.292;2023-01-28T01:19:29;7.10;;;6.37;;
22929;SDS011;11630;42.660;23.292;2023-01-28T01:21:59;8.07;;;6.70;;
22929;SDS011;11630;42.660;23.292;2023-01-28T01:24:30;10.03;;;7.10;;
22929;SDS011;11630;42.660;23.292;2023-01-28T01:27:01;7.97;;;6.40;;
22929;SDS011;11630;42.660;23.292;2023-01-28T01:29:33;7.07;;;5.97;;
22929;SDS011;11630;42.660;23.292;2023-01-28T01:32:03;7.53;;;6.33;;
22929;SDS011;11630;42.660;23.292;2023-01-28T01:34:34;7.93;;;7.07;;
22929;SDS011;11630;42.660;23.292;2023-01-28T01:37:05;7.87;;;6.73;;
22929;SDS011;11630;42.660;23.292;2023-01-28T01:39:36;6.87;;;6.07;;
22929;SDS011;11630;42.660;23.292;2023-01-28T01:42:12;9.73;;;7.17;;
22929;SDS011;11630;42.660;23.292;2023-01-28T01:45:01;7.77;;;6.67;;
22929;SDS011;11630;42.660;23.292;2023-01-28T01:47:46;6.60;;;5.73;;
22929;SDS011;11630;42.660;23.292;2023-01-28T01:50:23;8.30;;;6.93;;
22929;SDS011;11630;42.660;23.292;2023-01-28T01:52:55;8.83;;;7.30;;
22929;SDS011;11630;42.660;23.292;2023-01-28T01:55:27;9.37;;;8.00;;
22929;SDS011;11630;42.660;23.292;2023-01-28T01:58:00;8.47;;;7.67;;
22929;SDS011;11630;42.660;23.292;2023-01-28T02:00:31;10.40;;;8.00;;
22929;SDS011;11630;42.660;23.292;2023-01-28T02:03:01;8.87;;;7.23;;
22929;SDS011;11630;42.660;23.292;2023-01-28T02:05:32;8.80;;;7.30;;
22929;SDS011;11630;42.660;23.292;2023-01-28T02:08:02;7.93;;;7.03;;
22929;SDS011;11630;42.660;23.292;2023-01-28T02:10:52;6.60;;;5.90;;
22929;SDS011;11630;42.660;23.292;2023-01-28T02:13:22;7.93;;;7.23;;
22929;SDS011;11630;42.660;23.292;2023-01-28T02:15:54;5.60;;;5.03;;
22929;SDS011;11630;42.660;23.292;2023-01-28T02:18:25;10.60;;;7.70;;
22929;SDS011;11630;42.660;23.292;2023-01-28T02:24:09;7.07;;;6.37;;
22929;SDS011;11630;42.660;23.292;2023-01-28T02:32:18;7.63;;;6.60;;
22929;SDS011;11630;42.660;23.292;2023-01-28T02:35:17;8.50;;;6.97;;
22929;SDS011;11630;42.660;23.292;2023-01-28T02:37:37;10.97;;;7.03;;
22929;SDS011;11630;42.660;23.292;2023-01-28T02:40:09;7.90;;;6.90;;
22929;SDS011;11630;42.660;23.292;2023-01-28T02:42:39;7.00;;;6.30;;
22929;SDS011;11630;42.660;23.292;2023-01-28T02:45:18;7.80;;;6.97;;
22929;SDS011;11630;42.660;23.292;2023-01-28T02:47:51;8.30;;;7.03;;
22929;SDS011;11630;42.660;23.292;2023-01-28T02:50:25;6.50;;;5.87;;
22929;SDS011;11630;42.660;23.292;2023-01-28T02:59:01;7.87;;;6.60;;
22929;SDS011;11630;42.660;23.292;2023-01-28T03:04:46;9.07;;;6.30;;
22929;SDS011;11630;42.660;23.292;2023-01-28T03:07:21;6.17;;;5.67;;
22929;SDS011;11630;42.660;23.292;2023-01-28T03:09:55;8.10;;;7.20;;
22929;SDS011;11630;42.660;23.292;2023-01-28T03:12:27;8.53;;;7.13;;
22929;SDS011;11630;42.660;23.292;2023-01-28T03:24:06;7.43;;;6.17;;
22929;SDS011;11630;42.660;23.292;2023-01-28T03:26:55;8.40;;;6.80;;
22929;SDS011;11630;42.660;23.292;2023-01-28T03:29:41;9.43;;;7.43;;
22929;SDS011;11630;42.660;23.292;2023-01-28T03:32:29;8.13;;;6.80;;
22929;SDS011;11630;42.660;23.292;2023-01-28T03:35:17;8.03;;;6.27;;
22929;SDS011;11630;42.660;23.292;2023-01-28T03:38:05;8.20;;;6.70;;
22929;SDS011;11630;42.660;23.292;2023-01-28T03:40:48;6.33;;;5.00;;
22929;SDS011;11630;42.660;23.292;2023-01-28T03:43:25;8.90;;;7.47;;
22929;SDS011;11630;42.660;23.292;2023-01-28T03:45:57;8.43;;;7.57;;
22929;SDS011;11630;42.660;23.292;2023-01-28T03:48:28;8.73;;;7.83;;
22929;SDS011;11630;42.660;23.292;2023-01-28T03:50:59;8.83;;;7.20;;
22929;SDS011;11630;42.660;23.292;2023-01-28T03:53:30;7.57;;;6.77;;
22929;SDS011;11630;42.660;23.292;2023-01-28T03:56:00;7.43;;;6.70;;
22929;SDS011;11630;42.660;23.292;2023-01-28T03:58:31;7.63;;;5.93;;
22929;SDS011;11630;42.660;23.292;2023-01-28T04:01:12;6.53;;;5.93;;
22929;SDS011;11630;42.660;23.292;2023-01-28T04:03:41;9.67;;;7.50;;
22929;SDS011;11630;42.660;23.292;2023-01-28T04:06:13;9.30;;;6.47;;
22929;SDS011;11630;42.660;23.292;2023-01-28T04:08:44;7.90;;;6.33;;
22929;SDS011;11630;42.660;23.292;2023-01-28T04:11:14;7.23;;;6.40;;
22929;SDS011;11630;42.660;23.292;2023-01-28T04:13:46;7.40;;;6.27;;
22929;SDS011;11630;42.660;23.292;2023-01-28T04:16:16;7.90;;;7.10;;
22929;SDS011;11630;42.660;23.292;2023-01-28T04:18:47;6.73;;;6.03;;
22929;SDS011;11630;42.660;23.292;2023-01-28T04:21:17;6.27;;;5.13;;
22929;SDS011;11630;42.660;23.292;2023-01-28T04:23:47;7.57;;;6.70;;
22929;SDS011;11630;42.660;23.292;2023-01-28T04:26:18;8.73;;;7.60;;
22929;SDS011;11630;42.660;23.292;2023-01-28T04:28:49;9.13;;;7.93;;
22929;SDS011;11630;42.660;23.292;2023-01-28T04:31:20;9.67;;;7.87;;
22929;SDS011;11630;42.660;23.292;2023-01-28T04:33:51;7.90;;;6.37;;
22929;SDS011;11630;42.660;23.292;2023-01-28T04:36:21;5.77;;;5.03;;
22929;SDS011;11630;42.660;23.292;2023-01-28T04:38:53;8.33;;;6.67;;
22929;SDS011;11630;42.660;23.292;2023-01-28T04:41:24;6.60;;;6.00;;
22929;SDS011;11630;42.660;23.292;2023-01-28T04:43:54;10.70;;;8.57;;
22929;SDS011;11630;42.660;23.292;2023-01-28T04:46:25;9.63;;;7.93;;
22929;SDS011;11630;42.660;23.292;2023-01-28T04:48:56;7.77;;;7.00;;
22929;SDS011;11630;42.660;23.292;2023-01-28T04:51:27;9.13;;;8.23;;
22929;SDS011;11630;42.660;23.292;2023-01-28T04:53:58;9.47;;;7.50;;
22929;SDS011;11630;42.660;23.292;2023-01-28T04:56:30;11.00;;;6.97;;
22929;SDS011;11630;42.660;23.292;2023-01-28T04:59:04;8.40;;;7.27;;
22929;SDS011;11630;42.660;23.292;2023-01-28T05:01:35;8.07;;;7.27;;
22929;SDS011;11630;42.660;23.292;2023-01-28T05:04:05;10.43;;;7.17;;
22929;SDS011;11630;42.660;23.292;2023-01-28T05:06:36;6.97;;;6.27;;
22929;SDS011;11630;42.660;23.292;2023-01-28T05:09:08;6.60;;;5.90;;
22929;SDS011;11630;42.660;23.292;2023-01-28T05:11:38;10.33;;;8.10;;
22929;SDS011;11630;42.660;23.292;2023-01-28T05:14:09;7.33;;;6.47;;
22929;SDS011;11630;42.660;23.292;2023-01-28T05:16:40;9.57;;;8.00;;
22929;SDS011;11630;42.660;23.292;2023-01-28T05:19:11;6.73;;;5.87;;
22929;SDS011;11630;42.660;23.292;2023-01-28T05:21:42;7.80;;;6.93;;
22929;SDS011;11630;42.660;23.292;2023-01-28T05:24:13;8.57;;;6.47;;
22929;SDS011;11630;42.660;23.292;2023-01-28T05:26:44;12.07;;;7.27;;
22929;SDS011;11630;42.660;23.292;2023-01-28T05:29:13;8.07;;;7.20;;
22929;SDS011;11630;42.660;23.292;2023-01-28T05:31:44;8.77;;;7.53;;
22929;SDS011;11630;42.660;23.292;2023-01-28T05:34:18;9.30;;;7.13;;
22929;SDS011;11630;42.660;23.292;2023-01-28T05:36:49;9.40;;;8.40;;
22929;SDS011;11630;42.660;23.292;2023-01-28T05:39:19;9.37;;;8.07;;
22929;SDS011;11630;42.660;23.292;2023-01-28T05:41:50;8.97;;;7.40;;
22929;SDS011;11630;42.660;23.292;2023-01-28T05:44:21;7.83;;;7.10;;
22929;SDS011;11630;42.660;23.292;2023-01-28T05:46:52;8.27;;;6.67;;
22929;SDS011;11630;42.660;23.292;2023-01-28T05:49:22;9.23;;;7.67;;
22929;SDS011;11630;42.660;23.292;2023-01-28T05:51:53;7.97;;;7.17;;
22929;SDS011;11630;42.660;23.292;2023-01-28T05:54:24;6.93;;;6.23;;
22929;SDS011;11630;42.660;23.292;2023-01-28T05:56:56;9.10;;;8.20;;
22929;SDS011;11630;42.660;23.292;2023-01-28T05:59:26;9.20;;;7.67;;
22929;SDS011;11630;42.660;23.292;2023-01-28T06:01:58;10.17;;;7.57;;
22929;SDS011;11630;42.660;23.292;2023-01-28T06:04:29;10.47;;;8.00;;
22929;SDS011;11630;42.660;23.292;2023-01-28T06:07:00;10.17;;;8.83;;
22929;SDS011;11630;42.660;23.292;2023-01-28T06:09:30;9.97;;;7.57;;
22929;SDS011;11630;42.660;23.292;2023-01-28T06:12:01;9.27;;;7.43;;
22929;SDS011;11630;42.660;23.292;2023-01-28T06:14:32;8.70;;;7.57;;
22929;SDS011;11630;42.660;23.292;2023-01-28T06:17:03;11.30;;;8.90;;
22929;SDS011;11630;42.660;23.292;2023-01-28T06:19:34;9.43;;;8.23;;
22929;SDS011;11630;42.660;23.292;2023-01-28T06:22:04;23.27;;;16.37;;
22929;SDS011;11630;42.660;23.292;2023-01-28T06:24:35;10.90;;;8.97;;
22929;SDS011;11630;42.660;23.292;2023-01-28T06:27:06;11.07;;;8.47;;
22929;SDS011;11630;42.660;23.292;2023-01-28T06:29:38;10.87;;;8.20;;
22929;SDS011;11630;42.660;23.292;2023-01-28T06:32:09;9.70;;;7.87;;
22929;SDS011;11630;42.660;23.292;2023-01-28T06:34:39;10.90;;;8.90;;
22929;SDS011;11630;42.660;23.292;2023-01-28T06:37:13;9.20;;;7.87;;
22929;SDS011;11630;42.660;23.292;2023-01-28T06:39:45;9.40;;;8.47;;
22929;SDS011;11630;42.660;23.292;2023-01-28T06:42:15;12.43;;;8.37;;
22929;SDS011;11630;42.660;23.292;2023-01-28T06:44:46;9.60;;;7.37;;
22929;SDS011;11630;42.660;23.292;2023-01-28T06:47:18;14.13;;;11.10;;
22929;SDS011;11630;42.660;23.292;2023-01-28T06:49:50;13.83;;;10.33;;
22929;SDS011;11630;42.660;23.292;2023-01-28T06:52:21;11.00;;;9.07;;
22929;SDS011;11630;42.660;23.292;2023-01-28T06:54:52;11.10;;;8.80;;
22929;SDS011;11630;42.660;23.292;2023-01-28T06:57:23;14.07;;;10.07;;
22929;SDS011;11630;42.660;23.292;2023-01-28T06:59:54;14.23;;;10.37;;
22929;SDS011;11630;42.660;23.292;2023-01-28T07:02:24;13.57;;;10.90;;
22929;SDS011;11630;42.660;23.292;2023-01-28T07:04:55;8.07;;;6.40;;
22929;SDS011;11630;42.660;23.292;2023-01-28T07:07:25;14.77;;;8.97;;
22929;SDS011;11630;42.660;23.292;2023-01-28T07:09:57;12.40;;;10.53;;
22929;SDS011;11630;42.660;23.292;2023-01-28T07:12:28;8.83;;;7.93;;
22929;SDS011;11630;42.660;23.292;2023-01-28T07:15:00;11.87;;;8.60;;
22929;SDS011;11630;42.660;23.292;2023-01-28T07:17:31;10.93;;;8.00;;
22929;SDS011;11630;42.660;23.292;2023-01-28T07:20:03;10.83;;;9.07;;
22929;SDS011;11630;42.660;23.292;2023-01-28T07:22:34;10.33;;;8.13;;
22929;SDS011;11630;42.660;23.292;2023-01-28T07:25:06;14.00;;;9.10;;
22929;SDS011;11630;42.660;23.292;2023-01-28T07:27:37;14.97;;;9.50;;
22929;SDS011;11630;42.660;23.292;2023-01-28T07:30:09;14.70;;;10.97;;
22929;SDS011;11630;42.660;23.292;2023-01-28T07:32:40;17.97;;;11.47;;
22929;SDS011;11630;42.660;23.292;2023-01-28T07:35:10;11.83;;;9.50;;
22929;SDS011;11630;42.660;23.292;2023-01-28T07:37:42;7.93;;;7.07;;
22929;SDS011;11630;42.660;23.292;2023-01-28T07:40:13;11.80;;;9.93;;
22929;SDS011;11630;42.660;23.292;2023-01-28T07:42:44;15.30;;;10.80;;
22929;SDS011;11630;42.660;23.292;2023-01-28T07:45:15;16.53;;;11.73;;
22929;SDS011;11630;42.660;23.292;2023-01-28T07:47:52;14.90;;;9.07;;
22929;SDS011;11630;42.660;23.292;2023-01-28T07:50:23;14.33;;;10.87;;
22929;SDS011;11630;42.660;23.292;2023-01-28T07:52:55;14.97;;;10.07;;
22929;SDS011;11630;42.660;23.292;2023-01-28T07:55:25;16.13;;;11.53;;
22929;SDS011;11630;42.660;23.292;2023-01-28T07:57:59;13.93;;;10.03;;
22929;SDS011;11630;42.660;23.292;2023-01-28T08:00:30;14.23;;;9.50;;
22929;SDS011;11630;42.660;23.292;2023-01-28T08:03:01;13.20;;;9.93;;
22929;SDS011;11630;42.660;23.292;2023-01-28T08:05:40;13.80;;;10.20;;
22929;SDS011;11630;42.660;23.292;2023-01-28T08:08:13;13.23;;;11.17;;
22929;SDS011;11630;42.660;23.292;2023-01-28T08:10:45;14.53;;;9.33;;
22929;SDS011;11630;42.660;23.292;2023-01-28T08:13:16;13.33;;;10.00;;
22929;SDS011;11630;42.660;23.292;2023-01-28T08:15:47;11.60;;;9.07;;
22929;SDS011;11630;42.660;23.292;2023-01-28T08:18:18;14.00;;;10.37;;
22929;SDS011;11630;42.660;23.292;2023-01-28T08:20:53;14.30;;;11.10;;
22929;SDS011;11630;42.660;23.292;2023-01-28T08:23:21;9.33;;;7.30;;
22929;SDS011;11630;42.660;23.292;2023-01-28T08:25:51;13.57;;;10.47;;
22929;SDS011;11630;42.660;23.292;2023-01-28T08:28:21;8.57;;;7.73;;
22929;SDS011;11630;42.660;23.292;2023-01-28T08:30:52;11.47;;;9.37;;
22929;SDS011;11630;42.660;23.292;2023-01-28T08:33:23;11.57;;;8.77;;
22929;SDS011;11630;42.660;23.292;2023-01-28T08:35:54;15.43;;;11.50;;
22929;SDS011;11630;42.660;23.292;2023-01-28T08:38:24;11.73;;;8.97;;
22929;SDS011;11630;42.660;23.292;2023-01-28T08:40:55;14.00;;;10.00;;
22929;SDS011;11630;42.660;23.292;2023-01-28T08:43:28;14.10;;;9.50;;
22929;SDS011;11630;42.660;23.292;2023-01-28T08:46:08;14.30;;;9.83;;
22929;SDS011;11630;42.660;23.292;2023-01-28T08:48:34;13.63;;;10.13;;
22929;SDS011;11630;42.660;23.292;2023-01-28T08:51:05;13.17;;;10.63;;
22929;SDS011;11630;42.660;23.292;2023-01-28T08:53:35;9.70;;;8.10;;
22929;SDS011;11630;42.660;23.292;2023-01-28T08:56:06;13.03;;;9.80;;
22929;SDS011;11630;42.660;23.292;2023-01-28T08:58:37;11.03;;;9.20;;
22929;SDS011;11630;42.660;23.292;2023-01-28T09:01:08;13.73;;;9.90;;
22929;SDS011;11630;42.660;23.292;2023-01-28T09:03:38;14.83;;;10.67;;
22929;SDS011;11630;42.660;23.292;2023-01-28T09:06:09;10.60;;;7.67;;
22929;SDS011;11630;42.660;23.292;2023-01-28T09:08:43;5.83;;;4.67;;
22929;SDS011;11630;42.660;23.292;2023-01-28T09:11:20;9.63;;;8.03;;
22929;SDS011;11630;42.660;23.292;2023-01-28T09:13:50;11.77;;;9.07;;
22929;SDS011;11630;42.660;23.292;2023-01-28T09:16:20;12.30;;;9.67;;
22929;SDS011;11630;42.660;23.292;2023-01-28T09:18:52;13.37;;;9.77;;
22929;SDS011;11630;42.660;23.292;2023-01-28T09:21:22;13.33;;;9.90;;
22929;SDS011;11630;42.660;23.292;2023-01-28T09:23:53;13.07;;;10.20;;
22929;SDS011;11630;42.660;23.292;2023-01-28T09:26:23;13.10;;;10.47;;
22929;SDS011;11630;42.660;23.292;2023-01-28T09:28:55;14.90;;;11.63;;
22929;SDS011;11630;42.660;23.292;2023-01-28T09:31:25;17.73;;;10.43;;
22929;SDS011;11630;42.660;23.292;2023-01-28T09:33:56;12.33;;;9.60;;
22929;SDS011;11630;42.660;23.292;2023-01-28T09:36:26;13.87;;;10.53;;
22929;SDS011;11630;42.660;23.292;2023-01-28T09:38:57;15.27;;;11.07;;
22929;SDS011;11630;42.660;23.292;2023-01-28T09:41:32;11.97;;;9.27;;
22929;SDS011;11630;42.660;23.292;2023-01-28T09:44:17;12.80;;;9.70;;
22929;SDS011;11630;42.660;23.292;2023-01-28T09:46:53;9.67;;;7.03;;
22929;SDS011;11630;42.660;23.292;2023-01-28T09:49:49;13.50;;;10.43;;
22929;SDS011;11630;42.660;23.292;2023-01-28T09:52:11;9.43;;;8.03;;
22929;SDS011;11630;42.660;23.292;2023-01-28T09:54:44;6.40;;;5.50;;
22929;SDS011;11630;42.660;23.292;2023-01-28T10:00:22;11.63;;;9.77;;
22929;SDS011;11630;42.660;23.292;2023-01-28T10:09:18;17.33;;;12.47;;
22929;SDS011;11630;42.660;23.292;2023-01-28T10:12:15;17.23;;;12.83;;
22929;SDS011;11630;42.660;23.292;2023-01-28T10:15:10;15.70;;;11.07;;
22929;SDS011;11630;42.660;23.292;2023-01-28T10:17:41;14.80;;;9.10;;
22929;SDS011;11630;42.660;23.292;2023-01-28T10:23:04;10.67;;;8.03;;
22929;SDS011;11630;42.660;23.292;2023-01-28T10:25:50;16.87;;;11.33;;
22929;SDS011;11630;42.660;23.292;2023-01-28T10:28:23;17.60;;;11.93;;
22929;SDS011;11630;42.660;23.292;2023-01-28T10:30:57;15.27;;;11.57;;
22929;SDS011;11630;42.660;23.292;2023-01-28T10:33:34;16.07;;;12.10;;
22929;SDS011;11630;42.660;23.292;2023-01-28T10:36:03;17.33;;;12.23;;
22929;SDS011;11630;42.660;23.292;2023-01-28T10:38:34;11.43;;;8.27;;
22929;SDS011;11630;42.660;23.292;2023-01-28T10:41:04;13.03;;;10.70;;
22929;SDS011;11630;42.660;23.292;2023-01-28T10:43:36;18.63;;;10.83;;
22929;SDS011;11630;42.660;23.292;2023-01-28T10:46:12;13.97;;;10.67;;
22929;SDS011;11630;42.660;23.292;2023-01-28T10:48:47;14.97;;;11.20;;
22929;SDS011;11630;42.660;23.292;2023-01-28T10:51:28;12.53;;;10.03;;
22929;SDS011;11630;42.660;23.292;2023-01-28T10:53:52;16.40;;;11.30;;
22929;SDS011;11630;42.660;23.292;2023-01-28T10:56:24;11.27;;;10.03;;
22929;SDS011;11630;42.660;23.292;2023-01-28T11:04:21;14.23;;;11.30;;
22929;SDS011;11630;42.660;23.292;2023-01-28T11:06:57;10.00;;;7.60;;
22929;SDS011;11630;42.660;23.292;2023-01-28T11:12:13;11.90;;;10.67;;
22929;SDS011;11630;42.660;23.292;2023-01-28T11:14:51;15.53;;;12.20;;
22929;SDS011;11630;42.660;23.292;2023-01-28T11:17:24;13.93;;;10.90;;
22929;SDS011;11630;42.660;23.292;2023-01-28T11:19:58;13.70;;;9.73;;
22929;SDS011;11630;42.660;23.292;2023-01-28T11:22:37;12.37;;;9.70;;
22929;SDS011;11630;42.660;23.292;2023-01-28T11:25:17;14.67;;;11.20;;
22929;SDS011;11630;42.660;23.292;2023-01-28T11:28:04;11.30;;;7.23;;
22929;SDS011;11630;42.660;23.292;2023-01-28T11:30:37;15.53;;;11.10;;
22929;SDS011;11630;42.660;23.292;2023-01-28T11:33:18;17.73;;;11.97;;
22929;SDS011;11630;42.660;23.292;2023-01-28T11:35:53;18.50;;;13.47;;
22929;SDS011;11630;42.660;23.292;2023-01-28T11:38:27;12.10;;;9.70;;
22929;SDS011;11630;42.660;23.292;2023-01-28T11:40:57;7.53;;;6.47;;
22929;SDS011;11630;42.660;23.292;2023-01-28T11:43:29;13.97;;;10.53;;
22929;SDS011;11630;42.660;23.292;2023-01-28T11:51:34;11.53;;;9.83;;
22929;SDS011;11630;42.660;23.292;2023-01-28T11:54:04;13.73;;;10.70;;
22929;SDS011;11630;42.660;23.292;2023-01-28T12:03:14;12.70;;;10.00;;
22929;SDS011;11630;42.660;23.292;2023-01-28T12:08:05;15.57;;;9.93;;
22929;SDS011;11630;42.660;23.292;2023-01-28T12:11:05;14.30;;;10.67;;
22929;SDS011;11630;42.660;23.292;2023-01-28T12:16:45;13.47;;;10.17;;
22929;SDS011;11630;42.660;23.292;2023-01-28T12:22:11;12.33;;;9.53;;
22929;SDS011;11630;42.660;23.292;2023-01-28T12:25:05;10.87;;;8.80;;
22929;SDS011;11630;42.660;23.292;2023-01-28T12:30:30;13.07;;;10.43;;
22929;SDS011;11630;42.660;23.292;2023-01-28T12:41:42;12.33;;;10.23;;
22929;SDS011;11630;42.660;23.292;2023-01-28T12:44:19;19.40;;;9.57;;
22929;SDS011;11630;42.660;23.292;2023-01-28T12:46:53;12.97;;;10.30;;
22929;SDS011;11630;42.660;23.292;2023-01-28T12:49:29;17.17;;;11.67;;
22929;SDS011;11630;42.660;23.292;2023-01-28T12:52:04;13.73;;;10.33;;
22929;SDS011;11630;42.660;23.292;2023-01-28T12:57:29;11.80;;;7.77;;
22929;SDS011;11630;42.660;23.292;2023-01-28T13:03:09;16.70;;;11.27;;
22929;SDS011;11630;42.660;23.292;2023-01-28T13:05:42;16.20;;;11.83;;
22929;SDS011;11630;42.660;23.292;2023-01-28T13:08:14;17.43;;;12.77;;
22929;SDS011;11630;42.660;23.292;2023-01-28T13:10:44;12.17;;;9.60;;
22929;SDS011;11630;42.660;23.292;2023-01-28T13:13:21;15.63;;;11.30;;
22929;SDS011;11630;42.660;23.292;2023-01-28T13:16:03;17.67;;;12.13;;
22929;SDS011;11630;42.660;23.292;2023-01-28T13:18:42;19.77;;;12.87;;
22929;SDS011;11630;42.660;23.292;2023-01-28T13:26:40;15.43;;;13.00;;
22929;SDS011;11630;42.660;23.292;2023-01-28T13:29:32;18.43;;;12.23;;
22929;SDS011;11630;42.660;23.292;2023-01-28T13:32:24;17.43;;;13.30;;
22929;SDS011;11630;42.660;23.292;2023-01-28T13:34:36;25.73;;;14.60;;
22929;SDS011;11630;42.660;23.292;2023-01-28T13:39:47;18.77;;;14.03;;
22929;SDS011;11630;42.660;23.292;2023-01-28T13:42:22;14.70;;;11.97;;
22929;SDS011;11630;42.660;23.292;2023-01-28T13:44:54;23.57;;;13.33;;
22929;SDS011;11630;42.660;23.292;2023-01-28T13:47:30;17.13;;;11.63;;
22929;SDS011;11630;42.660;23.292;2023-01-28T13:50:03;19.20;;;12.10;;
22929;SDS011;11630;42.660;23.292;2023-01-28T13:52:49;14.77;;;11.43;;
22929;SDS011;11630;42.660;23.292;2023-01-28T13:58:03;16.70;;;12.50;;
22929;SDS011;11630;42.660;23.292;2023-01-28T14:00:35;16.77;;;12.07;;
22929;SDS011;11630;42.660;23.292;2023-01-28T14:09:36;17.23;;;11.10;;
22929;SDS011;11630;42.660;23.292;2023-01-28T14:17:45;19.00;;;13.23;;
22929;SDS011;11630;42.660;23.292;2023-01-28T14:20:31;16.70;;;12.27;;
22929;SDS011;11630;42.660;23.292;2023-01-28T14:23:05;16.87;;;12.70;;
22929;SDS011;11630;42.660;23.292;2023-01-28T14:25:42;16.63;;;13.03;;
22929;SDS011;11630;42.660;23.292;2023-01-28T14:28:13;15.83;;;12.87;;
22929;SDS011;11630;42.660;23.292;2023-01-28T14:30:55;16.77;;;12.30;;
22929;SDS011;11630;42.660;23.292;2023-01-28T14:33:35;14.87;;;11.07;;
22929;SDS011;11630;42.660;23.292;2023-01-28T14:36:08;13.77;;;10.07;;
22929;SDS011;11630;42.660;23.292;2023-01-28T14:38:38;16.90;;;11.87;;
22929;SDS011;11630;42.660;23.292;2023-01-28T14:41:19;20.37;;;12.07;;
22929;SDS011;11630;42.660;23.292;2023-01-28T14:43:45;17.77;;;13.00;;
22929;SDS011;11630;42.660;23.292;2023-01-28T14:46:37;17.70;;;11.27;;
22929;SDS011;11630;42.660;23.292;2023-01-28T14:49:16;10.70;;;8.73;;
22929;SDS011;11630;42.660;23.292;2023-01-28T14:54:58;13.90;;;9.23;;
22929;SDS011;11630;42.660;23.292;2023-01-28T14:57:46;16.70;;;12.43;;
22929;SDS011;11630;42.660;23.292;2023-01-28T15:00:23;11.20;;;8.53;;
22929;SDS011;11630;42.660;23.292;2023-01-28T15:02:53;17.27;;;10.17;;
22929;SDS011;11630;42.660;23.292;2023-01-28T15:05:26;15.00;;;10.00;;
22929;SDS011;11630;42.660;23.292;2023-01-28T15:07:58;6.80;;;5.57;;
22929;SDS011;11630;42.660;23.292;2023-01-28T15:10:30;13.10;;;10.50;;
22929;SDS011;11630;42.660;23.292;2023-01-28T15:13:05;13.43;;;11.57;;
22929;SDS011;11630;42.660;23.292;2023-01-28T15:15:38;15.67;;;11.53;;
22929;SDS011;11630;42.660;23.292;2023-01-28T15:18:13;15.47;;;12.77;;
22929;SDS011;11630;42.660;23.292;2023-01-28T15:20:44;16.87;;;12.80;;
22929;SDS011;11630;42.660;23.292;2023-01-28T15:23:16;16.33;;;12.33;;
22929;SDS011;11630;42.660;23.292;2023-01-28T15:25:47;17.07;;;12.43;;
22929;SDS011;11630;42.660;23.292;2023-01-28T15:28:28;15.07;;;11.67;;
22929;SDS011;11630;42.660;23.292;2023-01-28T15:30:59;21.77;;;11.00;;
22929;SDS011;11630;42.660;23.292;2023-01-28T15:33:30;18.17;;;11.30;;
22929;SDS011;11630;42.660;23.292;2023-01-28T15:36:01;27.30;;;17.80;;
22929;SDS011;11630;42.660;23.292;2023-01-28T15:38:35;17.60;;;12.30;;
22929;SDS011;11630;42.660;23.292;2023-01-28T15:41:04;18.97;;;12.57;;
22929;SDS011;11630;42.660;23.292;2023-01-28T15:43:35;14.40;;;10.83;;
22929;SDS011;11630;42.660;23.292;2023-01-28T15:46:10;16.23;;;12.23;;
22929;SDS011;11630;42.660;23.292;2023-01-28T15:48:43;13.90;;;10.70;;
22929;SDS011;11630;42.660;23.292;2023-01-28T15:51:18;17.10;;;12.30;;
22929;SDS011;11630;42.660;23.292;2023-01-28T15:53:54;18.17;;;13.00;;
22929;SDS011;11630;42.660;23.292;2023-01-28T15:56:27;15.97;;;10.20;;
22929;SDS011;11630;42.660;23.292;2023-01-28T15:59:09;19.47;;;13.23;;
22929;SDS011;11630;42.660;23.292;2023-01-28T16:01:47;18.10;;;12.57;;
22929;SDS011;11630;42.660;23.292;2023-01-28T16:04:22;13.90;;;11.00;;
22929;SDS011;11630;42.660;23.292;2023-01-28T16:06:55;20.00;;;12.90;;
22929;SDS011;11630;42.660;23.292;2023-01-28T16:09:27;17.50;;;11.23;;
22929;SDS011;11630;42.660;23.292;2023-01-28T16:12:06;16.20;;;11.93;;
22929;SDS011;11630;42.660;23.292;2023-01-28T16:14:54;19.93;;;13.80;;
22929;SDS011;11630;42.660;23.292;2023-01-28T16:17:36;20.23;;;14.60;;
22929;SDS011;11630;42.660;23.292;2023-01-28T16:20:04;21.00;;;11.47;;
22929;SDS011;11630;42.660;23.292;2023-01-28T16:22:39;20.10;;;13.10;;
22929;SDS011;11630;42.660;23.292;2023-01-28T16:27:51;17.50;;;13.23;;
22929;SDS011;11630;42.660;23.292;2023-01-28T16:30:20;19.57;;;12.67;;
22929;SDS011;11630;42.660;23.292;2023-01-28T16:32:52;12.93;;;11.10;;
22929;SDS011;11630;42.660;23.292;2023-01-28T16:35:29;19.70;;;13.40;;
22929;SDS011;11630;42.660;23.292;2023-01-28T16:37:57;21.17;;;12.77;;
22929;SDS011;11630;42.660;23.292;2023-01-28T16:40:27;19.40;;;14.60;;
22929;SDS011;11630;42.660;23.292;2023-01-28T16:42:58;23.10;;;14.70;;
22929;SDS011;11630;42.660;23.292;2023-01-28T16:45:31;23.17;;;15.33;;
22929;SDS011;11630;42.660;23.292;2023-01-28T16:48:02;22.40;;;15.47;;
22929;SDS011;11630;42.660;23.292;2023-01-28T16:50:32;22.83;;;14.13;;